createdAt,value
2022-10-17T00:02:06.160Z,82.19
2022-10-17T00:07:03.798Z,81.67
2022-10-17T00:09:30.091Z,81.00
2022-10-17T00:11:56.515Z,79.90
2022-10-17T00:14:22.821Z,80.06
2022-10-17T00:16:49.119Z,79.64
2022-10-17T00:19:15.455Z,80.32
2022-10-17T00:21:41.782Z,80.84
2022-10-17T00:24:08.293Z,80.81
2022-10-17T00:26:34.677Z,81.23
2022-10-17T00:29:01.028Z,81.22
2022-10-17T00:31:27.390Z,81.29
2022-10-17T00:33:54.012Z,80.96
2022-10-17T00:36:23.337Z,82.04
2022-10-17T00:38:55.448Z,81.27
2022-10-17T00:41:25.008Z,81.66
2022-10-17T00:43:54.309Z,82.08
2022-10-17T00:46:22.556Z,82.53
2022-10-17T00:48:50.911Z,82.02
2022-10-17T00:51:19.858Z,82.13
2022-10-17T00:53:46.882Z,80.85
2022-10-17T00:56:13.658Z,81.71
2022-10-17T00:58:40.057Z,82.72
2022-10-17T01:01:06.519Z,82.38
2022-10-17T01:03:32.992Z,81.74
2022-10-17T01:05:59.705Z,82.06
2022-10-17T01:08:26.069Z,81.60
2022-10-17T01:11:07.476Z,81.17
2022-10-17T01:13:44.692Z,81.50
2022-10-17T01:16:21.021Z,82.24
2022-10-17T01:18:50.080Z,82.16
2022-10-17T01:21:44.320Z,81.80
2022-10-17T01:24:36.953Z,81.10
2022-10-17T01:27:15.606Z,81.49
2022-10-17T01:29:55.974Z,80.75
2022-10-17T01:32:25.479Z,80.08
2022-10-17T01:35:05.222Z,80.37
2022-10-17T01:37:45.003Z,79.14
2022-10-17T01:40:28.529Z,78.63
2022-10-17T01:43:05.022Z,78.30
2022-10-17T01:46:00.618Z,78.76
2022-10-17T01:48:34.877Z,78.08
2022-10-17T01:51:21.146Z,77.95
2022-10-17T01:53:57.019Z,78.73
2022-10-17T01:56:26.299Z,77.93
2022-10-17T01:59:09.035Z,79.39
2022-10-17T02:01:38.014Z,80.01
2022-10-17T02:04:07.928Z,80.68
2022-10-17T02:06:36.150Z,80.82
2022-10-17T02:09:17.014Z,81.45
2022-10-17T02:11:50.434Z,81.14
2022-10-17T02:14:33.214Z,80.82
2022-10-17T02:17:05.846Z,80.25
2022-10-17T02:19:54.985Z,79.83
2022-10-17T02:22:43.865Z,79.29
2022-10-17T02:25:25.346Z,78.67
2022-10-17T02:28:03.377Z,79.03
2022-10-17T02:30:59.678Z,78.96
2022-10-17T02:33:35.301Z,78.89
2022-10-17T02:36:08.783Z,79.12
2022-10-17T02:38:35.591Z,80.16
2022-10-17T02:41:03.572Z,80.54
2022-10-17T02:43:30.210Z,80.61
2022-10-17T02:45:56.985Z,81.80
2022-10-17T02:48:59.478Z,81.38
2022-10-17T02:51:36.901Z,80.95
2022-10-17T02:54:24.444Z,80.71
2022-10-17T02:56:55.285Z,80.94
2022-10-17T02:59:24.828Z,82.34
2022-10-17T03:01:51.935Z,82.29
2022-10-17T03:04:19.738Z,82.00
2022-10-17T03:06:48.675Z,82.07
2022-10-17T03:09:15.449Z,82.09
2022-10-17T03:11:41.892Z,81.75
2022-10-17T03:14:08.311Z,82.48
2022-10-17T03:16:34.625Z,82.63
2022-10-17T03:19:00.954Z,83.18
2022-10-17T03:21:27.316Z,83.25
2022-10-17T03:23:53.648Z,83.13
2022-10-17T03:26:20.026Z,82.98
2022-10-17T03:28:48.549Z,83.16
2022-10-17T03:31:17.868Z,83.04
2022-10-17T03:33:44.190Z,82.52
2022-10-17T03:36:13.753Z,83.04
2022-10-17T03:38:40.619Z,83.16
2022-10-17T03:41:07.271Z,82.98
2022-10-17T03:43:33.792Z,82.88
2022-10-17T03:46:01.025Z,83.10
2022-10-17T03:48:29.090Z,82.83
2022-10-17T03:51:05.397Z,82.25
2022-10-17T03:53:32.299Z,82.39
2022-10-17T03:56:10.560Z,82.74
2022-10-17T03:58:36.966Z,82.43
2022-10-17T04:01:05.475Z,82.16
2022-10-17T04:03:32.086Z,81.30
2022-10-17T04:06:00.261Z,82.04
2022-10-17T04:08:27.632Z,81.37
2022-10-17T04:10:59.210Z,81.86
2022-10-17T04:13:25.871Z,81.83
2022-10-17T04:16:00.701Z,81.19
2022-10-17T04:18:27.411Z,81.65
2022-10-17T04:20:54.363Z,81.57
2022-10-17T04:23:21.002Z,80.77
2022-10-17T04:25:47.322Z,81.20
2022-10-17T04:28:13.653Z,81.00
2022-10-17T04:30:42.324Z,81.56
2022-10-17T04:33:11.472Z,81.15
2022-10-17T04:35:37.839Z,81.18
2022-10-17T04:38:04.218Z,80.91
2022-10-17T04:40:30.556Z,81.11
2022-10-17T04:42:57.144Z,80.74
2022-10-17T04:45:23.490Z,81.25
2022-10-17T04:47:49.782Z,81.46
2022-10-17T04:50:16.175Z,82.86
2022-10-17T04:52:42.504Z,82.92
2022-10-17T04:55:09.223Z,83.08
2022-10-17T04:57:35.846Z,83.12
2022-10-17T05:00:02.423Z,83.07
2022-10-17T05:02:28.993Z,83.66
2022-10-17T05:04:55.515Z,84.33
2022-10-17T05:07:21.920Z,83.49
2022-10-17T05:09:48.240Z,83.82
2022-10-17T05:12:14.565Z,83.50
2022-10-17T05:14:40.881Z,83.64
2022-10-17T05:17:07.413Z,83.56
2022-10-17T05:19:33.707Z,82.92
2022-10-17T05:22:00.045Z,82.48
2022-10-17T05:24:26.343Z,83.52
2022-10-17T05:26:52.693Z,82.21
2022-10-17T05:29:19.122Z,83.12
2022-10-17T05:31:45.437Z,82.44
2022-10-17T05:34:13.907Z,83.17
2022-10-17T05:36:40.583Z,83.39
2022-10-17T05:39:06.895Z,83.32
2022-10-17T05:41:33.187Z,83.91
2022-10-17T05:44:03.066Z,83.28
2022-10-17T05:46:31.825Z,84.31
2022-10-17T05:48:58.282Z,84.57
2022-10-17T05:51:24.643Z,85.04
2022-10-17T05:53:51.011Z,84.66
2022-10-17T05:56:17.375Z,84.95
2022-10-17T05:58:50.455Z,84.43
2022-10-17T06:01:18.771Z,85.42
2022-10-17T06:03:45.119Z,84.30
2022-10-17T06:06:13.075Z,84.71
2022-10-17T06:08:39.693Z,83.89
2022-10-17T06:11:09.248Z,83.55
2022-10-17T06:13:36.711Z,84.14
2022-10-17T06:16:03.106Z,83.69
2022-10-17T06:18:29.473Z,84.75
2022-10-17T06:21:02.477Z,85.06
2022-10-17T06:23:28.878Z,83.83
2022-10-17T06:25:59.079Z,84.75
2022-10-17T06:28:25.427Z,85.19
2022-10-17T06:30:51.860Z,85.33
2022-10-17T06:33:18.225Z,84.53
2022-10-17T06:35:50.426Z,85.85
2022-10-17T06:38:16.757Z,85.54
2022-10-17T06:40:43.049Z,85.58
2022-10-17T06:43:09.357Z,86.67
2022-10-17T06:45:38.987Z,86.55
2022-10-17T06:48:05.939Z,87.50
2022-10-17T06:50:32.229Z,87.90
2022-10-17T06:52:58.556Z,87.69
2022-10-17T06:55:24.882Z,89.18
2022-10-17T06:57:52.263Z,89.36
2022-10-17T07:00:18.679Z,89.37
2022-10-17T07:02:45.026Z,89.58
2022-10-17T07:05:11.649Z,90.22
2022-10-17T07:07:40.200Z,89.69
2022-10-17T07:10:09.623Z,90.04
2022-10-17T07:12:36.175Z,89.71
2022-10-17T07:15:06.619Z,89.47
2022-10-17T07:17:32.976Z,89.27
2022-10-17T07:19:59.339Z,89.60
2022-10-17T07:22:25.742Z,89.94
2022-10-17T07:24:52.078Z,91.26
2022-10-17T07:27:18.586Z,91.52
2022-10-17T07:29:44.958Z,91.89
2022-10-17T07:32:11.276Z,93.13
2022-10-17T07:34:37.638Z,92.50
2022-10-17T07:37:04.312Z,93.77
2022-10-17T07:39:30.632Z,93.20
2022-10-17T07:41:57.140Z,93.75
2022-10-17T07:44:23.480Z,92.96
2022-10-17T07:46:49.827Z,94.22
2022-10-17T07:49:16.159Z,94.70
2022-10-17T07:51:42.629Z,93.38
2022-10-17T07:54:09.161Z,94.51
2022-10-17T07:56:36.021Z,94.12
2022-10-17T07:59:05.169Z,94.32
2022-10-17T08:01:34.737Z,94.23
2022-10-17T08:04:01.193Z,94.69
2022-10-17T08:06:27.547Z,95.04
2022-10-17T08:08:53.849Z,94.58
2022-10-17T08:11:21.216Z,94.50
2022-10-17T08:13:47.588Z,94.43
2022-10-17T08:16:13.976Z,94.83
2022-10-17T08:18:41.629Z,94.15
2022-10-17T08:21:08.552Z,93.33
2022-10-17T08:23:36.306Z,93.84
2022-10-17T08:26:05.192Z,93.11
2022-10-17T08:28:34.477Z,93.27
2022-10-17T08:31:09.970Z,93.21
2022-10-17T08:33:36.969Z,93.59
2022-10-17T08:36:05.366Z,93.00
2022-10-17T08:38:35.453Z,93.10
2022-10-17T08:41:15.549Z,93.02
2022-10-17T08:44:00.652Z,92.70
2022-10-17T08:46:34.308Z,92.25
2022-10-17T08:49:05.677Z,93.45
2022-10-17T08:51:37.040Z,92.31
2022-10-17T08:54:40.433Z,93.37
2022-10-17T08:57:12.891Z,93.45
2022-10-17T08:59:39.429Z,92.75
2022-10-17T09:02:31.833Z,93.47
2022-10-17T09:05:29.034Z,91.87
2022-10-17T09:08:05.975Z,92.71
2022-10-17T09:10:58.560Z,92.59
2022-10-17T09:13:49.376Z,90.74
2022-10-17T09:16:25.722Z,91.08
2022-10-17T09:19:15.718Z,91.23
2022-10-17T09:21:48.496Z,91.08
2022-10-17T09:24:28.017Z,90.26
2022-10-17T09:26:55.464Z,89.38
2022-10-17T09:29:24.829Z,90.07
2022-10-17T09:32:19.192Z,89.91
2022-10-17T09:34:45.595Z,89.32
2022-10-17T09:37:16.823Z,88.84
2022-10-17T09:39:44.600Z,88.62
2022-10-17T09:42:18.646Z,88.37
2022-10-17T09:44:51.437Z,87.35
2022-10-17T09:47:25.554Z,87.51
2022-10-17T09:49:52.396Z,87.59
2022-10-17T09:52:24.853Z,87.70
2022-10-17T09:55:20.167Z,87.63
2022-10-17T09:58:04.888Z,87.93
2022-10-17T10:00:43.662Z,88.19
2022-10-17T10:03:12.698Z,87.34
2022-10-17T10:05:40.637Z,87.54
2022-10-17T10:08:18.907Z,87.86
2022-10-17T10:10:45.591Z,88.25
2022-10-17T10:13:14.742Z,87.94
2022-10-17T10:15:42.653Z,87.95
2022-10-17T10:18:36.073Z,88.07
2022-10-17T10:21:08.688Z,87.54
2022-10-17T10:23:40.012Z,87.21
2022-10-17T10:26:18.912Z,86.45
2022-10-17T10:28:58.643Z,85.93
2022-10-17T10:31:31.494Z,86.51
2022-10-17T10:34:01.142Z,86.20
2022-10-17T10:36:43.866Z,85.43
2022-10-17T10:39:32.520Z,85.95
2022-10-17T10:42:01.128Z,86.13
2022-10-17T10:44:31.911Z,85.99
2022-10-17T10:47:19.893Z,85.91
2022-10-17T10:49:46.312Z,85.87
2022-10-17T10:52:35.490Z,86.25
2022-10-17T10:55:17.498Z,85.62
2022-10-17T10:57:46.984Z,85.32
2022-10-17T11:00:19.743Z,85.65
2022-10-17T11:03:17.835Z,85.00
2022-10-17T11:05:53.256Z,85.22
2022-10-17T11:09:13.945Z,84.82
2022-10-17T11:11:56.097Z,84.98
2022-10-17T11:14:45.019Z,84.31
2022-10-17T11:17:32.811Z,83.10
2022-10-17T11:20:10.873Z,83.18
2022-10-17T11:22:47.545Z,82.97
2022-10-17T11:25:29.755Z,82.89
2022-10-17T11:27:58.696Z,82.68
2022-10-17T11:30:36.444Z,81.67
2022-10-17T11:33:04.986Z,82.04
2022-10-17T11:35:40.333Z,81.70
2022-10-17T11:38:18.357Z,82.31
2022-10-17T11:40:50.071Z,81.98
2022-10-17T11:43:16.397Z,82.06
2022-10-17T11:45:47.149Z,82.44
2022-10-17T11:48:22.771Z,83.00
2022-10-17T11:54:04.577Z,82.47
2022-10-17T11:56:48.669Z,82.34
2022-10-17T11:59:42.683Z,82.50
2022-10-17T12:02:23.564Z,82.73
2022-10-17T12:05:12.181Z,82.62
2022-10-17T12:07:55.032Z,82.89
2022-10-17T12:10:44.109Z,82.76
2022-10-17T12:13:28.654Z,82.45
2022-10-17T12:15:56.245Z,82.36
2022-10-17T12:18:27.312Z,82.88
2022-10-17T12:21:00.890Z,83.37
2022-10-17T12:23:31.991Z,83.23
2022-10-17T12:26:03.272Z,83.39
2022-10-17T12:28:39.971Z,83.03
2022-10-17T12:31:23.094Z,83.78
2022-10-17T12:33:51.760Z,82.82
2022-10-17T12:36:26.957Z,82.75
2022-10-17T12:39:02.395Z,81.82
2022-10-17T12:41:37.898Z,83.37
2022-10-17T12:44:13.321Z,84.13
2022-10-17T12:46:59.666Z,83.84
2022-10-17T12:49:45.880Z,83.60
2022-10-17T12:52:35.146Z,83.69
2022-10-17T12:55:13.422Z,83.50
2022-10-17T12:57:46.927Z,83.90
2022-10-17T13:00:18.354Z,83.11
2022-10-17T13:02:45.755Z,83.85
2022-10-17T13:05:28.413Z,82.82
2022-10-17T13:07:56.612Z,82.51
2022-10-17T13:13:06.783Z,81.59
2022-10-17T13:15:34.928Z,81.45
2022-10-17T13:18:01.798Z,80.31
2022-10-17T13:20:31.576Z,79.56
2022-10-17T13:22:59.537Z,79.26
2022-10-17T13:25:27.422Z,79.46
2022-10-17T13:28:06.359Z,79.43
2022-10-17T13:30:35.746Z,79.32
2022-10-17T13:33:03.415Z,78.32
2022-10-17T13:38:29.514Z,78.02
2022-10-17T13:41:01.996Z,78.52
2022-10-17T13:43:42.703Z,78.01
2022-10-17T13:46:37.808Z,78.19
2022-10-17T13:49:18.637Z,77.24
2022-10-17T13:51:47.876Z,77.02
2022-10-17T13:54:39.944Z,77.67
2022-10-17T13:57:16.587Z,77.47
2022-10-17T13:59:47.622Z,76.64
2022-10-17T14:02:16.850Z,76.36
2022-10-17T14:05:16.150Z,76.70
2022-10-17T14:07:58.024Z,76.10
2022-10-17T14:10:38.730Z,75.87
2022-10-17T14:13:08.202Z,76.67
2022-10-17T14:15:36.328Z,77.06
2022-10-17T14:18:08.357Z,76.06
2022-10-17T14:23:30.730Z,76.25
2022-10-17T14:26:08.288Z,76.05
2022-10-17T14:28:35.283Z,76.16
2022-10-17T14:31:18.326Z,75.67
2022-10-17T14:33:50.514Z,76.35
2022-10-17T14:36:18.538Z,75.00
2022-10-17T14:38:51.868Z,75.41
2022-10-17T14:44:40.423Z,74.69
2022-10-17T14:47:41.777Z,73.80
2022-10-17T14:50:06.699Z,74.12
2022-10-17T14:52:34.066Z,74.34
2022-10-17T14:55:17.251Z,74.10
2022-10-17T14:57:45.221Z,73.73
2022-10-17T15:00:16.838Z,73.73
2022-10-17T15:02:43.657Z,72.84
2022-10-17T15:05:13.205Z,73.55
2022-10-17T15:07:40.531Z,73.20
2022-10-17T15:10:07.203Z,74.68
2022-10-17T15:12:33.575Z,74.55
2022-10-17T15:14:59.933Z,74.34
2022-10-17T15:17:29.506Z,75.34
2022-10-17T15:19:56.393Z,76.14
2022-10-17T15:22:23.581Z,75.69
2022-10-17T15:24:50.132Z,75.95
2022-10-17T15:27:19.572Z,76.09
2022-10-17T15:29:46.811Z,76.96
2022-10-17T15:32:14.012Z,77.34
2022-10-17T15:34:40.494Z,77.95
2022-10-17T15:37:16.096Z,78.28
2022-10-17T15:39:42.528Z,77.63
2022-10-17T15:42:11.910Z,78.87
2022-10-17T15:44:38.321Z,78.96
2022-10-17T15:47:05.402Z,79.46
2022-10-17T15:49:31.720Z,80.16
2022-10-17T15:51:58.082Z,79.85
2022-10-17T15:54:24.389Z,80.35
2022-10-17T15:56:54.786Z,80.92
2022-10-17T15:59:24.202Z,81.77
2022-10-17T16:01:50.679Z,81.51
2022-10-17T16:04:18.376Z,82.42
2022-10-17T16:06:44.795Z,83.84
2022-10-17T16:09:11.204Z,83.66
2022-10-17T16:11:40.015Z,84.02
2022-10-17T16:14:10.896Z,85.74
2022-10-17T16:16:37.289Z,84.36
2022-10-17T16:19:04.770Z,85.26
2022-10-17T16:21:34.350Z,85.48
2022-10-17T16:24:00.878Z,85.85
2022-10-17T16:26:28.143Z,86.52
2022-10-17T16:28:55.984Z,86.93
2022-10-17T16:31:29.275Z,87.00
2022-10-17T16:33:57.235Z,86.08
2022-10-17T16:36:24.381Z,86.76
2022-10-17T16:38:52.429Z,86.85
2022-10-17T16:41:25.361Z,85.87
2022-10-17T16:43:53.660Z,85.50
2022-10-17T16:46:21.030Z,85.69
2022-10-17T16:48:47.917Z,85.54
2022-10-17T16:51:15.332Z,85.95
2022-10-17T16:53:45.119Z,85.35
2022-10-17T16:56:15.501Z,85.51
2022-10-17T16:58:42.624Z,85.82
2022-10-17T17:01:12.951Z,86.79
2022-10-17T17:03:41.565Z,85.98
2022-10-17T17:06:11.933Z,86.07
2022-10-17T17:08:38.411Z,86.24
2022-10-17T17:11:12.325Z,86.64
2022-10-17T17:13:38.828Z,86.80
2022-10-17T17:16:08.033Z,86.82
2022-10-17T17:18:34.478Z,86.99
2022-10-17T17:21:03.214Z,86.92
2022-10-17T17:23:30.747Z,87.36
2022-10-17T17:25:59.088Z,87.94
2022-10-17T17:28:26.397Z,88.61
2022-10-17T17:30:53.316Z,88.78
2022-10-17T17:33:19.713Z,89.15
2022-10-17T17:35:46.049Z,89.47
2022-10-17T17:38:12.382Z,88.66
2022-10-17T17:40:49.691Z,88.82
2022-10-17T17:43:17.738Z,87.27
2022-10-17T17:45:44.187Z,85.93
2022-10-17T17:48:11.013Z,85.75
2022-10-17T17:50:38.556Z,84.80
2022-10-17T17:53:06.160Z,83.59
2022-10-17T17:55:33.591Z,83.37
2022-10-17T17:58:00.129Z,82.77
2022-10-17T18:00:27.395Z,82.55
2022-10-17T18:02:54.324Z,81.82
2022-10-17T18:05:20.769Z,81.78
2022-10-17T18:07:47.219Z,81.72
2022-10-17T18:12:42.001Z,81.80
2022-10-17T18:15:08.542Z,82.12
2022-10-17T18:17:35.093Z,81.79
2022-10-17T18:20:02.695Z,81.41
2022-10-17T18:22:29.434Z,82.18
2022-10-17T18:24:56.077Z,82.31
2022-10-17T18:27:22.543Z,81.43
2022-10-17T18:29:50.333Z,81.87
2022-10-17T18:32:17.112Z,82.10
2022-10-17T18:34:43.509Z,82.29
2022-10-17T18:37:09.882Z,82.53
2022-10-17T18:39:36.241Z,81.89
2022-10-17T18:42:02.669Z,82.68
2022-10-17T18:44:29.164Z,81.94
2022-10-17T18:46:58.537Z,81.91
2022-10-17T18:49:27.887Z,81.60
2022-10-17T18:51:54.238Z,81.45
2022-10-17T18:54:22.124Z,80.92
2022-10-17T18:56:53.005Z,80.77
2022-10-17T18:59:19.964Z,80.72
2022-10-17T19:01:46.955Z,80.36
2022-10-17T19:04:13.981Z,80.56
2022-10-17T19:06:40.913Z,79.64
2022-10-17T19:09:09.170Z,79.39
2022-10-17T19:11:37.424Z,78.99
2022-10-17T19:14:13.121Z,79.25
2022-10-17T19:16:47.797Z,78.56
2022-10-17T19:19:19.336Z,79.12
2022-10-17T19:21:45.844Z,79.48
2022-10-17T19:24:20.829Z,78.76
2022-10-17T19:26:50.175Z,78.70
2022-10-17T19:29:18.011Z,79.94
2022-10-17T19:31:45.404Z,79.17
2022-10-17T19:34:13.127Z,80.23
2022-10-17T19:36:40.453Z,80.30
2022-10-17T19:39:18.895Z,80.50
2022-10-17T19:41:47.135Z,80.33
2022-10-17T19:44:14.407Z,79.81
2022-10-17T19:46:41.289Z,80.01
2022-10-17T19:49:07.659Z,79.38
2022-10-17T19:51:34.333Z,80.62
2022-10-17T19:54:01.453Z,80.40
2022-10-17T19:56:32.385Z,80.26
2022-10-17T19:58:59.168Z,80.51
2022-10-17T20:01:31.986Z,80.24
2022-10-17T20:03:58.382Z,80.48
2022-10-17T20:06:25.345Z,80.50
2022-10-17T20:08:51.832Z,80.64
2022-10-17T20:11:22.051Z,80.28
2022-10-17T20:13:48.504Z,80.82
2022-10-17T20:16:23.510Z,80.46
2022-10-17T20:18:51.999Z,81.09
2022-10-17T20:21:22.397Z,80.54
2022-10-17T20:23:49.034Z,81.07
2022-10-17T20:26:37.093Z,81.47
2022-10-17T20:29:16.523Z,81.47
2022-10-17T20:31:44.898Z,81.82
2022-10-17T20:34:16.679Z,81.84
2022-10-17T20:36:43.490Z,81.98
2022-10-17T20:39:12.020Z,81.34
2022-10-17T20:41:38.567Z,81.36
2022-10-17T20:44:06.714Z,81.29
2022-10-17T20:46:37.596Z,81.15
2022-10-17T20:49:06.954Z,81.25
2022-10-17T20:51:34.241Z,81.14
2022-10-17T20:54:00.657Z,81.37
2022-10-17T20:56:29.243Z,82.00
2022-10-17T20:59:00.777Z,81.20
2022-10-17T21:01:28.456Z,81.83
2022-10-17T21:03:55.028Z,81.79
2022-10-17T21:06:22.203Z,81.65
2022-10-17T21:08:49.390Z,81.32
2022-10-17T21:11:18.108Z,81.29
2022-10-17T21:13:45.319Z,81.74
2022-10-17T21:16:13.896Z,81.47
2022-10-17T21:18:40.761Z,81.69
2022-10-17T21:21:22.536Z,82.38
2022-10-17T21:23:50.677Z,81.95
2022-10-17T21:26:18.299Z,82.06
2022-10-17T21:28:46.920Z,82.55
2022-10-17T21:31:17.675Z,82.59
2022-10-17T21:33:47.145Z,82.34
2022-10-17T21:36:16.661Z,83.29
2022-10-17T21:38:44.809Z,84.12
2022-10-17T21:41:12.639Z,84.37
2022-10-17T21:43:38.938Z,84.89
2022-10-17T21:46:12.470Z,84.94
2022-10-17T21:48:39.223Z,84.61
2022-10-17T21:51:09.572Z,85.57
2022-10-17T21:53:36.618Z,85.30
2022-10-17T21:56:09.188Z,86.05
2022-10-17T21:58:35.524Z,86.43
2022-10-17T22:01:12.593Z,86.49
2022-10-17T22:03:44.209Z,86.24
2022-10-17T22:06:38.753Z,86.72
2022-10-17T22:09:02.796Z,86.92
2022-10-17T22:11:32.765Z,87.52
2022-10-17T22:14:01.948Z,87.62
2022-10-17T22:16:28.865Z,87.41
2022-10-17T22:19:03.194Z,87.41
2022-10-17T22:21:34.416Z,87.66
2022-10-17T22:24:03.052Z,87.68
2022-10-17T22:26:31.970Z,88.06
2022-10-17T22:28:58.413Z,87.59
2022-10-17T22:31:25.529Z,88.36
2022-10-17T22:33:51.848Z,88.58
2022-10-17T22:36:18.906Z,88.62
2022-10-17T22:38:45.273Z,88.48
2022-10-17T22:41:11.607Z,87.17
2022-10-17T22:43:37.926Z,87.38
2022-10-17T22:46:06.512Z,87.23
2022-10-17T22:48:33.342Z,86.67
2022-10-17T22:51:00.701Z,86.48
2022-10-17T22:53:27.232Z,86.83
2022-10-17T22:55:56.337Z,86.88
2022-10-17T22:58:23.661Z,86.96
2022-10-17T23:00:51.660Z,86.85
2022-10-17T23:03:19.403Z,86.71
2022-10-17T23:05:45.907Z,86.58
2022-10-17T23:08:13.506Z,86.86
2022-10-17T23:10:39.911Z,86.55
2022-10-17T23:13:06.865Z,86.90
2022-10-17T23:15:34.005Z,86.74
2022-10-17T23:18:01.658Z,86.57
2022-10-17T23:20:29.548Z,86.87
2022-10-17T23:22:56.303Z,87.20
2022-10-17T23:25:22.964Z,87.63
2022-10-17T23:27:49.313Z,87.75
2022-10-17T23:30:16.332Z,87.51
2022-10-17T23:32:42.704Z,88.30
2022-10-17T23:35:09.819Z,88.97
2022-10-17T23:37:36.305Z,88.55
2022-10-17T23:40:03.684Z,88.32
2022-10-17T23:42:30.306Z,89.16
2022-10-17T23:44:56.645Z,89.12
2022-10-17T23:47:22.937Z,88.92
2022-10-17T23:49:49.274Z,89.35
2022-10-17T23:52:15.805Z,90.82
2022-10-17T23:57:13.644Z,90.44
2022-10-17T23:59:40.041Z,90.27
